Time;durP1;ratioP1;P1;durP2;ratioP2;P2;SDS_P1;SDS_P2;PMS_P1;PMS_P2;Temp;Humidity;BMP_temperature;BMP_pressure;BME280_temperature;BME280_humidity;BME280_pressure;Samples;Min_cycle;Max_cycle;Signal;HPM_P1;HPM_P2
2021/11/18 00:00:35;;;;;;;23.08;10.48;;;;;;;;;;5060546;28;20048;-81
2021/11/18 00:03:03;;;;;;;23.23;9.98;;;;;;;;;;5060132;28;20045;-81
2021/11/18 00:05:31;;;;;;;23.63;10.65;;;;;;;;;;5059149;28;20049;-81
2021/11/18 00:07:58;;;;;;;20.90;9.82;;;;;;;;;;5059382;28;20064;-81
2021/11/18 00:10:28;;;;;;;23.98;10.85;;;;;;;;;;5061484;28;20055;-81
2021/11/18 00:12:56;;;;;;;24.52;10.40;;;;;;;;;;5063976;28;20052;-80
2021/11/18 00:15:26;;;;;;;22.80;10.77;;;;;;;;;;5062613;28;20522;-81
2021/11/18 00:17:58;;;;;;;20.00;9.20;;;;;;;;;;5057043;28;20495;-80
2021/11/18 00:20:26;;;;;;;18.88;9.75;;;;;;;;;;5057604;28;20057;-81
2021/11/18 00:22:53;;;;;;;22.33;8.95;;;;;;;;;;5058139;28;20171;-81
2021/11/18 00:25:20;;;;;;;21.95;10.30;;;;;;;;;;5057805;28;20083;-81
2021/11/18 00:27:47;;;;;;;24.77;10.80;;;;;;;;;;5059543;28;20053;-81
2021/11/18 00:30:15;;;;;;;24.98;10.50;;;;;;;;;;5077048;28;20064;-80
2021/11/18 00:32:42;;;;;;;22.48;10.90;;;;;;;;;;5070042;28;20049;-80
2021/11/18 00:35:14;;;;;;;21.33;9.98;;;;;;;;;;5056140;28;20057;-81
2021/11/18 00:37:41;;;;;;;21.20;9.25;;;;;;;;;;5057526;28;20647;-80
2021/11/18 00:40:10;;;;;;;20.58;9.13;;;;;;;;;;5057633;28;20048;-80
2021/11/18 00:42:37;;;;;;;25.55;9.82;;;;;;;;;;5057361;28;20049;-80
2021/11/18 00:45:05;;;;;;;21.50;9.30;;;;;;;;;;5057363;28;20069;-80
2021/11/18 00:47:32;;;;;;;25.25;10.43;;;;;;;;;;5059227;28;20059;-83
2021/11/18 00:49:58;;;;;;;24.58;10.05;;;;;;;;;;5063056;28;20056;-79
2021/11/18 00:52:27;;;;;;;21.42;8.73;;;;;;;;;;5063443;28;20053;-79
2021/11/18 00:54:54;;;;;;;24.90;10.43;;;;;;;;;;5060182;28;20045;-80
2021/11/18 00:57:21;;;;;;;22.45;9.68;;;;;;;;;;5062252;28;20473;-80
2021/11/18 00:59:48;;;;;;;21.77;9.85;;;;;;;;;;5061304;28;20143;-81
2021/11/18 01:02:15;;;;;;;22.20;9.70;;;;;;;;;;5067716;28;20045;-79
2021/11/18 01:04:42;;;;;;;22.40;9.85;;;;;;;;;;5064415;28;20045;-79
2021/11/18 01:07:09;;;;;;;23.73;9.77;;;;;;;;;;5065475;28;20056;-80
2021/11/18 01:09:37;;;;;;;25.00;11.13;;;;;;;;;;5064247;28;20049;-80
2021/11/18 01:12:06;;;;;;;20.85;9.27;;;;;;;;;;5065806;28;20049;-80
2021/11/18 01:14:34;;;;;;;20.67;9.55;;;;;;;;;;5065212;28;20049;-80
2021/11/18 01:17:01;;;;;;;26.02;11.13;;;;;;;;;;5064220;28;20125;-79
2021/11/18 01:19:28;;;;;;;21.83;9.85;;;;;;;;;;5063870;28;20587;-81
2021/11/18 01:21:55;;;;;;;23.75;9.73;;;;;;;;;;5063865;28;20045;-80
2021/11/18 01:24:22;;;;;;;22.13;9.70;;;;;;;;;;5063309;28;20116;-80
2021/11/18 01:26:50;;;;;;;21.33;9.45;;;;;;;;;;5078281;28;20144;-80
2021/11/18 01:29:17;;;;;;;21.27;9.55;;;;;;;;;;5078306;28;20045;-80
2021/11/18 01:31:44;;;;;;;23.00;9.73;;;;;;;;;;5063945;28;20049;-80
2021/11/18 01:34:11;;;;;;;19.42;9.80;;;;;;;;;;5062482;28;20052;-80
2021/11/18 01:36:37;;;;;;;25.27;10.70;;;;;;;;;;5063539;28;20040;-79
2021/11/18 01:39:06;;;;;;;21.85;9.52;;;;;;;;;;5063699;28;20053;-79
2021/11/18 01:41:37;;;;;;;25.90;10.88;;;;;;;;;;5063367;28;20474;-80
2021/11/18 01:44:10;;;;;;;;;;;;;;;;;;5063272;28;20049;-81
2021/11/18 01:46:37;;;;;;;21.33;9.32;;;;;;;;;;5062839;28;19920;-81
2021/11/18 01:49:09;;;;;;;22.48;10.30;;;;;;;;;;5062404;28;20048;-81
2021/11/18 01:51:39;;;;;;;24.02;10.00;;;;;;;;;;5063647;28;20045;-80
2021/11/18 01:54:06;;;;;;;21.88;9.77;;;;;;;;;;5065946;28;20063;-81
2021/11/18 01:56:34;;;;;;;21.50;9.77;;;;;;;;;;5065447;28;20504;-80
2021/11/18 01:59:12;;;;;;;19.88;9.45;;;;;;;;;;5065348;28;20052;-80
2021/11/18 02:01:39;;;;;;;26.38;9.40;;;;;;;;;;5065131;28;20442;-80
2021/11/18 02:04:09;;;;;;;21.08;9.40;;;;;;;;;;5063824;28;20056;-80
2021/11/18 02:06:39;;;;;;;21.88;10.50;;;;;;;;;;5061611;28;20066;-79
2021/11/18 02:09:12;;;;;;;18.85;9.45;;;;;;;;;;5064130;28;20044;-80
2021/11/18 02:11:42;;;;;;;22.98;10.02;;;;;;;;;;5061001;28;20067;-80
2021/11/18 02:14:14;;;;;;;25.45;11.25;;;;;;;;;;5061464;28;20045;-79
2021/11/18 02:16:42;;;;;;;22.20;10.15;;;;;;;;;;5061724;28;20072;-79
2021/11/18 02:19:09;;;;;;;19.77;9.82;;;;;;;;;;5060870;28;20056;-79
2021/11/18 02:21:39;;;;;;;23.60;9.93;;;;;;;;;;5059906;28;20049;-81
2021/11/18 02:24:09;;;;;;;22.38;9.98;;;;;;;;;;5060352;28;20045;-81
2021/11/18 02:26:35;;;;;;;23.33;10.43;;;;;;;;;;5060732;28;20041;-80
2021/11/18 02:29:05;;;;;;;23.58;9.82;;;;;;;;;;5065519;28;20049;-79
2021/11/18 02:31:35;;;;;;;20.42;9.65;;;;;;;;;;5075600;28;20526;-79
2021/11/18 02:34:07;;;;;;;23.58;10.50;;;;;;;;;;5072416;28;20098;-80
2021/11/18 02:36:34;;;;;;;23.65;10.68;;;;;;;;;;5060463;28;20354;-80
2021/11/18 02:39:02;;;;;;;22.83;10.15;;;;;;;;;;5057362;28;20048;-79
2021/11/18 02:41:29;;;;;;;22.60;10.20;;;;;;;;;;5058821;28;20050;-79
2021/11/18 02:43:57;;;;;;;21.30;10.13;;;;;;;;;;5060267;28;20045;-80
2021/11/18 02:46:24;;;;;;;22.33;10.93;;;;;;;;;;5059980;28;20057;-80
2021/11/18 02:48:51;;;;;;;22.10;9.55;;;;;;;;;;5059680;28;20049;-81
2021/11/18 02:51:19;;;;;;;21.77;9.68;;;;;;;;;;5059059;28;20511;-81
2021/11/18 02:53:48;;;;;;;23.15;9.85;;;;;;;;;;5059835;28;20064;-81
2021/11/18 02:56:17;;;;;;;20.02;9.65;;;;;;;;;;5067468;28;20116;-82
2021/11/18 02:58:44;;;;;;;20.60;9.48;;;;;;;;;;5070494;28;20049;-81
2021/11/18 03:01:14;;;;;;;22.30;10.25;;;;;;;;;;5066124;28;20052;-80
2021/11/18 03:03:43;;;;;;;24.00;10.70;;;;;;;;;;5058773;28;20049;-81
2021/11/18 03:06:10;;;;;;;22.25;10.25;;;;;;;;;;5056413;28;20300;-79
2021/11/18 03:08:37;;;;;;;23.13;11.45;;;;;;;;;;5056430;28;20068;-80
2021/11/18 03:11:04;;;;;;;23.60;10.45;;;;;;;;;;5056724;28;20077;-80
2021/11/18 03:13:33;;;;;;;22.80;11.38;;;;;;;;;;5056544;28;20053;-81
2021/11/18 03:16:01;;;;;;;21.95;9.35;;;;;;;;;;5056092;28;20614;-80
2021/11/18 03:18:28;;;;;;;24.08;10.60;;;;;;;;;;5056469;28;20060;-80
2021/11/18 03:20:57;;;;;;;26.58;11.65;;;;;;;;;;5057944;28;20079;-81
2021/11/18 03:23:24;;;;;;;22.20;9.43;;;;;;;;;;5057966;28;20052;-80
2021/11/18 03:25:52;;;;;;;21.92;9.90;;;;;;;;;;5058955;28;20458;-80
2021/11/18 03:28:21;;;;;;;22.90;9.57;;;;;;;;;;5058860;28;20076;-80
2021/11/18 03:30:51;;;;;;;26.00;11.52;;;;;;;;;;5058352;28;20049;-80
2021/11/18 03:33:21;;;;;;;22.83;10.45;;;;;;;;;;5057976;28;20122;-81
2021/11/18 03:35:49;;;;;;;25.40;10.85;;;;;;;;;;5055842;28;20053;-80
2021/11/18 03:38:16;;;;;;;24.50;10.70;;;;;;;;;;5055881;28;20045;-80
2021/11/18 03:40:49;;;;;;;22.08;9.93;;;;;;;;;;5058325;28;20404;-80
2021/11/18 03:43:17;;;;;;;23.30;10.23;;;;;;;;;;5058484;28;20118;-80
2021/11/18 03:45:44;;;;;;;23.55;10.75;;;;;;;;;;5059133;28;20056;-80
2021/11/18 03:48:16;;;;;;;27.75;11.23;;;;;;;;;;5057480;28;20097;-80
2021/11/18 03:50:44;;;;;;;24.50;11.38;;;;;;;;;;5056643;28;20083;-81
2021/11/18 03:53:11;;;;;;;23.15;10.32;;;;;;;;;;5056784;28;20124;-81
2021/11/18 03:55:38;;;;;;;27.70;12.63;;;;;;;;;;5056239;28;20048;-81
2021/11/18 03:58:06;;;;;;;25.75;10.98;;;;;;;;;;5057344;28;20053;-80
2021/11/18 04:00:37;;;;;;;22.80;11.15;;;;;;;;;;5059289;28;20052;-80
2021/11/18 04:03:05;;;;;;;23.15;9.68;;;;;;;;;;5058392;28;20068;-80
2021/11/18 04:05:34;;;;;;;22.80;10.57;;;;;;;;;;5058384;28;20152;-81
2021/11/18 04:08:01;;;;;;;24.95;11.30;;;;;;;;;;5055910;28;20063;-80
2021/11/18 04:10:30;;;;;;;24.73;10.63;;;;;;;;;;5055680;28;20045;-81
2021/11/18 04:12:58;;;;;;;24.67;11.38;;;;;;;;;;5056008;28;20080;-79
2021/11/18 04:15:30;;;;;;;26.13;10.90;;;;;;;;;;5062276;22;20049;-87
2021/11/18 04:21:35;;;;;;;22.75;10.63;;;;;;;;;;5037509;28;20524;-89
2021/11/18 04:24:26;;;;;;;27.25;11.50;;;;;;;;;;5053841;28;20058;-87
2021/11/18 04:26:54;;;;;;;24.33;10.43;;;;;;;;;;5054297;28;20136;-86
2021/11/18 04:29:29;;;;;;;23.52;11.43;;;;;;;;;;5045879;28;20512;-86
2021/11/18 04:32:03;;;;;;;28.25;12.00;;;;;;;;;;5033209;28;20053;-86
2021/11/18 04:35:07;;;;;;;25.77;11.80;;;;;;;;;;5047160;28;20037;-86
2021/11/18 04:38:07;;;;;;;29.02;11.32;;;;;;;;;;5051847;28;20077;-87
2021/11/18 04:40:37;;;;;;;24.85;11.15;;;;;;;;;;5054628;28;20061;-89
2021/11/18 04:43:06;;;;;;;24.52;11.45;;;;;;;;;;5055296;28;20068;-87
2021/11/18 04:45:36;;;;;;;25.10;11.18;;;;;;;;;;5041899;28;20111;-86
2021/11/18 04:48:05;;;;;;;24.08;11.05;;;;;;;;;;5037995;28;20053;-88
2021/11/18 04:50:32;;;;;;;26.05;13.45;;;;;;;;;;5041951;28;20050;-86
2021/11/18 04:53:01;;;;;;;27.02;11.80;;;;;;;;;;5035546;28;20072;-87
2021/11/18 04:55:36;;;;;;;26.02;11.63;;;;;;;;;;5035440;28;20057;-87
2021/11/18 05:01:16;;;;;;;25.60;11.07;;;;;;;;;;5035453;28;20519;-87
2021/11/18 05:03:51;;;;;;;24.92;11.52;;;;;;;;;;5032793;28;20053;-86
2021/11/18 05:06:31;;;;;;;24.33;11.50;;;;;;;;;;5033111;28;20053;-88
2021/11/18 05:09:47;;;;;;;29.80;15.23;;;;;;;;;;5031792;28;20068;-88
2021/11/18 05:12:18;;;;;;;27.55;12.10;;;;;;;;;;5011879;28;20050;-87
2021/11/18 05:14:46;;;;;;;26.75;11.20;;;;;;;;;;5032979;28;20132;-86
2021/11/18 05:17:17;;;;;;;30.70;12.73;;;;;;;;;;5040531;28;20057;-86
2021/11/18 05:20:32;;;;;;;29.20;11.60;;;;;;;;;;5054763;28;20299;-88
2021/11/18 05:23:04;;;;;;;29.80;12.40;;;;;;;;;;5054855;28;20108;-88
2021/11/18 05:25:36;;;;;;;31.58;13.57;;;;;;;;;;5042380;28;20060;-86
2021/11/18 05:28:16;;;;;;;31.33;12.75;;;;;;;;;;5033340;28;20042;-87
2021/11/18 05:33:36;;;;;;;25.13;11.40;;;;;;;;;;5033931;28;20397;-87
2021/11/18 05:36:19;;;;;;;26.13;11.05;;;;;;;;;;5032503;28;20136;-87
2021/11/18 05:38:54;;;;;;;26.98;11.50;;;;;;;;;;5033031;28;20057;-87
2021/11/18 05:41:43;;;;;;;29.83;12.43;;;;;;;;;;5034959;28;20053;-87
2021/11/18 05:44:18;;;;;;;28.65;12.10;;;;;;;;;;5042371;28;20057;-86
2021/11/18 05:46:53;;;;;;;29.88;12.55;;;;;;;;;;5044675;28;20073;-86
2021/11/18 05:49:27;;;;;;;29.98;13.23;;;;;;;;;;5048832;28;20041;-86
2021/11/18 05:51:58;;;;;;;28.23;12.50;;;;;;;;;;5057375;28;20052;-89
2021/11/18 05:54:28;;;;;;;25.83;12.07;;;;;;;;;;5053712;28;20053;-86
2021/11/18 05:57:21;;;;;;;28.27;12.30;;;;;;;;;;5038132;28;20049;-86
2021/11/18 05:59:59;;;;;;;29.33;12.05;;;;;;;;;;5034043;28;20049;-85
2021/11/18 06:02:40;;;;;;;28.35;12.18;;;;;;;;;;5036562;28;20522;-86
2021/11/18 06:05:11;;;;;;;29.40;12.15;;;;;;;;;;5036328;28;20071;-86
2021/11/18 06:17:12;;;;;;;27.95;12.52;;;;;;;;;;5036084;28;20064;-86
2021/11/18 06:19:43;;;;;;;29.05;12.52;;;;;;;;;;5059873;28;20037;-87
2021/11/18 06:22:13;;;;;;;26.17;11.48;;;;;;;;;;5049969;28;20107;-86
2021/11/18 06:24:44;;;;;;;29.98;12.23;;;;;;;;;;5051575;28;20037;-88
2021/11/18 06:33:29;;;;;;;31.73;13.40;;;;;;;;;;5051498;28;20577;-86
2021/11/18 06:36:08;;;;;;;32.53;13.25;;;;;;;;;;5035896;28;20137;-87
2021/11/18 06:38:41;;;;;;;25.75;12.18;;;;;;;;;;5036442;28;20057;-86
2021/11/18 06:41:37;;;;;;;29.25;12.68;;;;;;;;;;5035691;28;20053;-86
2021/11/18 06:44:31;;;;;;;27.20;11.85;;;;;;;;;;5035506;28;20080;-86
2021/11/18 06:50:19;;;;;;;33.15;13.60;;;;;;;;;;5034496;28;20041;-87
2021/11/18 06:54:13;;;;;;;29.88;12.88;;;;;;;;;;5034821;28;20053;-86
2021/11/18 06:56:54;;;;;;;27.35;12.32;;;;;;;;;;5034372;28;20516;-87
2021/11/18 06:59:28;;;;;;;34.30;13.20;;;;;;;;;;5035251;28;20053;-86
2021/11/18 07:04:52;;;;;;;27.33;11.13;;;;;;;;;;5034455;28;20047;-86
2021/11/18 07:07:36;;;;;;;28.55;12.23;;;;;;;;;;5035930;28;20514;-86
2021/11/18 07:10:09;;;;;;;35.67;14.57;;;;;;;;;;5034995;28;20049;-87
2021/11/18 07:12:40;;;;;;;34.40;13.98;;;;;;;;;;5034590;28;20049;-86
2021/11/18 07:15:10;;;;;;;;;;;;;;;;;;5034969;28;20050;-87
2021/11/18 07:17:44;;;;;;;35.97;14.05;;;;;;;;;;5034961;28;19936;-87
2021/11/18 07:20:20;;;;;;;34.17;14.15;;;;;;;;;;5034876;28;20452;-87
2021/11/18 07:23:09;;;;;;;40.40;15.27;;;;;;;;;;5035326;28;20517;-86
2021/11/18 07:39:38;;;;;;;;;;;;;;;;;;;;;
2021/11/18 07:52:34;;;;;;;27.33;11.15;;;;;;;;;;5038193;28;20508;-86
2021/11/18 07:58:11;;;;;;;28.10;11.65;;;;;;;;;;4952918;29;20146;-86
2021/11/18 08:07:06;;;;;;;24.60;11.13;;;;;;;;;;5038277;28;20115;-89
2021/11/18 08:13:31;;;;;;;29.92;12.88;;;;;;;;;;5004543;28;20077;-89
2021/11/18 08:25:45;;;;;;;30.00;13.25;;;;;;;;;;5059820;23;20468;-65
2021/11/18 08:28:12;;;;;;;29.38;13.68;;;;;;;;;;5051983;28;20056;-65
2021/11/18 08:30:41;;;;;;;34.42;13.57;;;;;;;;;;5051993;28;20045;-65
2021/11/18 08:33:11;;;;;;;28.70;11.75;;;;;;;;;;5031987;28;20061;-64
2021/11/18 08:35:39;;;;;;;31.40;12.70;;;;;;;;;;5031809;28;20060;-64
2021/11/18 08:38:10;;;;;;;30.50;12.20;;;;;;;;;;5031995;28;20136;-64
2021/11/18 08:40:40;;;;;;;26.50;11.35;;;;;;;;;;5032132;28;20063;-64
2021/11/18 08:43:08;;;;;;;31.70;13.05;;;;;;;;;;5031802;28;20483;-64
2021/11/18 08:45:36;;;;;;;29.10;12.25;;;;;;;;;;5031633;28;20058;-64
2021/11/18 08:48:05;;;;;;;28.13;11.18;;;;;;;;;;5032066;28;20442;-64
2021/11/18 08:50:32;;;;;;;31.05;12.02;;;;;;;;;;5032181;28;20482;-63
2021/11/18 08:53:00;;;;;;;29.25;12.82;;;;;;;;;;5031849;28;20575;-64
2021/11/18 08:55:31;;;;;;;29.08;12.55;;;;;;;;;;5031482;28;20049;-64
2021/11/18 08:57:58;;;;;;;32.88;12.65;;;;;;;;;;5031652;28;20057;-63
2021/11/18 09:00:50;;;;;;;30.02;13.68;;;;;;;;;;5032196;28;20058;-64
2021/11/18 09:03:20;;;;;;;25.38;10.82;;;;;;;;;;5032088;28;20053;-64
2021/11/18 09:05:48;;;;;;;28.38;11.93;;;;;;;;;;5031574;28;20512;-64
2021/11/18 09:08:16;;;;;;;26.77;12.50;;;;;;;;;;5032101;28;20518;-64
2021/11/18 09:10:45;;;;;;;24.45;10.65;;;;;;;;;;5031313;28;20402;-64
2021/11/18 09:13:13;;;;;;;27.70;12.13;;;;;;;;;;5031571;28;20127;-64
2021/11/18 09:15:41;;;;;;;26.40;12.13;;;;;;;;;;5033200;28;20056;-64
2021/11/18 09:18:10;;;;;;;27.52;11.23;;;;;;;;;;5036678;28;20046;-65
2021/11/18 09:20:38;;;;;;;25.63;11.02;;;;;;;;;;5036053;28;20140;-64
2021/11/18 09:23:06;;;;;;;37.83;16.60;;;;;;;;;;5035649;28;20045;-64
2021/11/18 09:25:36;;;;;;;39.85;16.90;;;;;;;;;;5035056;28;20052;-64
2021/11/18 09:28:06;;;;;;;23.30;11.02;;;;;;;;;;5035648;28;20046;-64
2021/11/18 09:30:36;;;;;;;24.00;10.05;;;;;;;;;;5035371;28;20049;-65
2021/11/18 09:33:04;;;;;;;24.60;10.05;;;;;;;;;;5035495;28;20057;-64
2021/11/18 09:35:33;;;;;;;26.48;11.23;;;;;;;;;;5035525;28;20486;-64
2021/11/18 09:38:02;;;;;;;22.15;9.73;;;;;;;;;;5035163;28;20072;-64
2021/11/18 09:40:33;;;;;;;22.73;10.02;;;;;;;;;;5035493;28;20057;-64
2021/11/18 09:43:26;;;;;;;27.10;11.07;;;;;;;;;;5035275;28;20100;-65
2021/11/18 09:46:16;;;;;;;22.95;10.00;;;;;;;;;;5035257;28;20388;-64
2021/11/18 09:49:12;;;;;;;25.80;10.80;;;;;;;;;;5035335;28;20092;-64
2021/11/18 09:51:49;;;;;;;25.10;10.27;;;;;;;;;;5035503;28;20050;-64
2021/11/18 09:54:40;;;;;;;28.80;12.80;;;;;;;;;;5035767;28;20060;-65
2021/11/18 09:57:32;;;;;;;21.73;9.30;;;;;;;;;;5035496;28;20115;-64
2021/11/18 10:00:09;;;;;;;22.73;10.52;;;;;;;;;;5035062;28;20057;-64
2021/11/18 10:03:09;;;;;;;24.20;10.15;;;;;;;;;;5035096;28;20061;-64
2021/11/18 10:05:43;;;;;;;24.52;10.25;;;;;;;;;;5034961;28;20053;-64
2021/11/18 10:08:14;;;;;;;20.90;9.98;;;;;;;;;;5034760;28;20056;-65
2021/11/18 10:10:50;;;;;;;26.58;11.30;;;;;;;;;;5034606;28;20495;-65
2021/11/18 10:13:35;;;;;;;25.60;10.73;;;;;;;;;;5034698;28;20054;-65
2021/11/18 10:16:09;;;;;;;24.00;10.25;;;;;;;;;;5046925;22;20037;-61
2021/11/18 10:18:39;;;;;;;25.67;11.02;;;;;;;;;;5054067;28;20059;-63
2021/11/18 10:21:14;;;;;;;26.17;11.85;;;;;;;;;;5054585;28;20049;-63
2021/11/18 10:23:41;;;;;;;25.13;11.55;;;;;;;;;;5054457;28;20055;-63
2021/11/18 10:26:11;;;;;;;24.70;10.43;;;;;;;;;;5054156;28;20435;-63
2021/11/18 10:28:49;;;;;;;26.17;11.65;;;;;;;;;;5053696;28;20075;-64
2021/11/18 10:31:25;;;;;;;24.52;10.15;;;;;;;;;;5053973;28;20045;-63
2021/11/18 10:33:57;;;;;;;25.92;10.98;;;;;;;;;;5054620;28;20048;-64
2021/11/18 10:36:49;;;;;;;23.70;10.60;;;;;;;;;;5054081;28;20053;-64
2021/11/18 10:39:24;;;;;;;24.63;11.20;;;;;;;;;;5054424;28;20143;-62
2021/11/18 10:41:56;;;;;;;22.65;9.85;;;;;;;;;;5054318;28;20049;-62
2021/11/18 10:44:25;;;;;;;25.70;10.57;;;;;;;;;;5054262;28;20139;-64
2021/11/18 10:47:04;;;;;;;23.67;10.68;;;;;;;;;;5053856;28;20051;-63
2021/11/18 10:49:42;;;;;;;21.40;9.50;;;;;;;;;;5054148;28;20128;-63
2021/11/18 10:52:21;;;;;;;22.08;11.30;;;;;;;;;;5053729;28;20140;-64
2021/11/18 10:54:50;;;;;;;20.27;9.25;;;;;;;;;;5053637;28;20064;-63
2021/11/18 10:57:21;;;;;;;24.15;10.73;;;;;;;;;;5053885;28;20052;-63
2021/11/18 10:59:50;;;;;;;22.48;10.43;;;;;;;;;;5053822;28;20473;-63
2021/11/18 11:02:24;;;;;;;20.83;10.02;;;;;;;;;;5053492;28;20128;-64
2021/11/18 11:04:54;;;;;;;19.30;9.90;;;;;;;;;;5053258;28;20045;-63
2021/11/18 11:07:36;;;;;;;19.70;10.00;;;;;;;;;;5053502;28;20128;-62
2021/11/18 11:10:06;;;;;;;17.10;7.70;;;;;;;;;;5053652;28;20122;-63
2021/11/18 11:12:35;;;;;;;17.17;7.70;;;;;;;;;;5053556;28;20221;-63
2021/11/18 11:15:28;;;;;;;19.50;9.30;;;;;;;;;;5053361;28;20045;-63
2021/11/18 11:18:20;;;;;;;16.45;6.95;;;;;;;;;;5047803;28;20113;-63
2021/11/18 11:21:04;;;;;;;18.58;7.63;;;;;;;;;;5053621;28;20045;-63
2021/11/18 11:23:44;;;;;;;17.48;7.95;;;;;;;;;;5053625;28;20061;-62
2021/11/18 11:26:59;;;;;;;18.17;7.10;;;;;;;;;;5044015;28;20091;-62
2021/11/18 11:29:38;;;;;;;19.55;7.65;;;;;;;;;;5018790;28;20056;-62
2021/11/18 11:32:14;;;;;;;15.20;7.05;;;;;;;;;;5042778;28;20042;-61
2021/11/18 11:35:06;;;;;;;18.30;7.32;;;;;;;;;;5032908;28;20124;-62
2021/11/18 11:38:16;;;;;;;13.20;6.50;;;;;;;;;;5031989;28;20053;-62
2021/11/18 11:40:54;;;;;;;13.38;5.35;;;;;;;;;;5010830;28;20089;-63
2021/11/18 11:43:41;;;;;;;11.18;5.22;;;;;;;;;;5031445;28;20061;-60
2021/11/18 11:46:33;;;;;;;12.57;4.55;;;;;;;;;;5033091;28;20406;-62
2021/11/18 11:49:27;;;;;;;10.00;5.22;;;;;;;;;;5033586;28;20544;-63
2021/11/18 11:52:15;;;;;;;11.07;5.03;;;;;;;;;;5032763;28;20061;-62
2021/11/18 11:54:55;;;;;;;10.35;4.57;;;;;;;;;;5032412;28;20053;-62
2021/11/18 11:57:36;;;;;;;7.15;3.45;;;;;;;;;;5032944;28;20049;-62
2021/11/18 12:00:12;;;;;;;9.68;3.90;;;;;;;;;;5032681;28;20426;-62
2021/11/18 12:02:43;;;;;;;10.98;4.82;;;;;;;;;;5032968;28;20064;-61
2021/11/18 12:05:15;;;;;;;23.48;11.20;;;;;;;;;;5032601;28;20144;-63
2021/11/18 12:07:53;;;;;;;17.63;8.73;;;;;;;;;;5032708;28;20081;-63
2021/11/18 12:10:35;;;;;;;12.07;5.32;;;;;;;;;;5032587;28;20517;-63
2021/11/18 12:13:09;;;;;;;8.93;4.35;;;;;;;;;;5032858;28;20045;-61
2021/11/18 12:15:43;;;;;;;11.63;5.50;;;;;;;;;;5032896;28;20167;-61
2021/11/18 12:18:22;;;;;;;10.15;4.85;;;;;;;;;;5032644;28;20125;-61
2021/11/18 12:20:49;;;;;;;11.95;4.45;;;;;;;;;;5032517;28;20109;-62
2021/11/18 12:23:20;;;;;;;7.72;3.97;;;;;;;;;;5032369;28;20046;-61
2021/11/18 12:26:15;;;;;;;8.68;3.85;;;;;;;;;;5032498;28;20053;-61
2021/11/18 12:29:02;;;;;;;8.15;4.00;;;;;;;;;;5032988;28;20055;-63
2021/11/18 12:31:31;;;;;;;12.10;6.10;;;;;;;;;;5033905;28;20095;-63
2021/11/18 12:34:03;;;;;;;11.23;4.65;;;;;;;;;;5033540;28;20119;-62
2021/11/18 12:37:07;;;;;;;10.55;4.55;;;;;;;;;;5032801;28;20065;-63
2021/11/18 12:40:02;;;;;;;9.65;4.43;;;;;;;;;;5030792;28;20156;-61
2021/11/18 12:42:55;;;;;;;9.05;4.82;;;;;;;;;;5033313;28;20569;-62
2021/11/18 12:45:50;;;;;;;9.88;4.20;;;;;;;;;;5032680;28;20091;-63
2021/11/18 12:48:22;;;;;;;8.98;4.32;;;;;;;;;;5032757;28;20132;-61
2021/11/18 12:51:07;;;;;;;12.75;5.18;;;;;;;;;;5031787;28;20099;-62
2021/11/18 12:53:38;;;;;;;10.90;5.38;;;;;;;;;;5031782;28;20052;-62
2021/11/18 12:56:25;;;;;;;12.38;5.72;;;;;;;;;;5031917;28;20086;-67
2021/11/18 12:58:56;;;;;;;12.10;6.15;;;;;;;;;;5031936;28;20050;-70
2021/11/18 13:01:54;;;;;;;8.98;4.45;;;;;;;;;;5032095;28;20572;-68
2021/11/18 13:04:44;;;;;;;8.68;4.47;;;;;;;;;;5030753;28;20092;-73
2021/11/18 13:07:32;;;;;;;9.55;4.32;;;;;;;;;;5031944;28;20045;-69
2021/11/18 13:10:27;;;;;;;9.52;4.78;;;;;;;;;;5032009;28;20053;-64
2021/11/18 13:13:39;;;;;;;11.07;4.55;;;;;;;;;;5031839;28;20129;-62
2021/11/18 13:16:34;;;;;;;8.40;3.88;;;;;;;;;;5031410;28;20053;-63
2021/11/18 13:19:23;;;;;;;19.65;8.23;;;;;;;;;;5031854;28;20049;-64
2021/11/18 13:21:58;;;;;;;19.30;8.30;;;;;;;;;;5032241;28;20057;-62
2021/11/18 13:24:54;;;;;;;18.95;7.38;;;;;;;;;;5032060;28;20045;-63
2021/11/18 13:27:26;;;;;;;7.85;4.20;;;;;;;;;;5027302;28;20053;-62
2021/11/18 13:29:55;;;;;;;10.18;4.57;;;;;;;;;;5032144;28;20491;-62
2021/11/18 13:32:24;;;;;;;11.00;4.43;;;;;;;;;;5032168;28;20054;-62
2021/11/18 13:35:00;;;;;;;10.45;4.93;;;;;;;;;;5031717;28;20487;-62
2021/11/18 13:37:31;;;;;;;8.98;4.25;;;;;;;;;;5031711;28;20042;-62
2021/11/18 13:40:02;;;;;;;9.48;4.60;;;;;;;;;;5032189;28;20509;-63
2021/11/18 13:42:35;;;;;;;9.45;4.57;;;;;;;;;;5031950;28;20057;-62
2021/11/18 13:45:12;;;;;;;8.73;4.75;;;;;;;;;;5031809;28;20570;-64
2021/11/18 13:47:49;;;;;;;9.15;4.32;;;;;;;;;;5031806;28;20046;-64
2021/11/18 13:50:21;;;;;;;11.10;5.22;;;;;;;;;;5031772;28;20088;-62
2021/11/18 13:52:59;;;;;;;14.68;6.63;;;;;;;;;;5031823;28;20057;-62
2021/11/18 13:55:32;;;;;;;11.15;5.10;;;;;;;;;;5031794;28;20056;-62
2021/11/18 13:58:11;;;;;;;11.70;5.72;;;;;;;;;;5031835;28;20053;-62
2021/11/18 14:00:42;;;;;;;11.10;4.43;;;;;;;;;;5031908;28;20567;-64
2021/11/18 14:03:16;;;;;;;12.25;5.35;;;;;;;;;;5034873;28;20466;-63
2021/11/18 14:05:45;;;;;;;11.55;5.70;;;;;;;;;;5036451;28;20059;-63
2021/11/18 14:08:18;;;;;;;11.82;5.07;;;;;;;;;;5036291;28;20056;-63
2021/11/18 14:10:48;;;;;;;12.43;5.13;;;;;;;;;;5035692;28;20413;-63
2021/11/18 14:13:35;;;;;;;13.45;6.45;;;;;;;;;;5035432;28;20128;-63
2021/11/18 14:16:06;;;;;;;12.80;6.03;;;;;;;;;;5035102;28;20046;-63
2021/11/18 14:18:36;;;;;;;15.13;6.53;;;;;;;;;;5035169;28;20077;-62
2021/11/18 14:21:14;;;;;;;15.25;7.07;;;;;;;;;;5035298;28;20096;-62
2021/11/18 14:24:02;;;;;;;15.52;6.85;;;;;;;;;;5035024;28;20053;-62
2021/11/18 14:26:39;;;;;;;61.28;25.50;;;;;;;;;;5034936;28;20059;-62
2021/11/18 14:29:43;;;;;;;23.80;11.65;;;;;;;;;;5034834;28;20053;-63
2021/11/18 14:32:20;;;;;;;16.88;8.57;;;;;;;;;;5034121;28;20046;-62
2021/11/18 14:34:59;;;;;;;15.57;7.28;;;;;;;;;;5034498;28;20049;-62
2021/11/18 14:37:35;;;;;;;16.05;6.50;;;;;;;;;;5034536;28;20046;-62
2021/11/18 14:40:06;;;;;;;14.27;6.15;;;;;;;;;;5034453;28;20057;-63
2021/11/18 14:43:04;;;;;;;13.88;7.18;;;;;;;;;;5034523;28;20080;-63
2021/11/18 14:45:34;;;;;;;13.25;6.05;;;;;;;;;;5034740;28;20128;-63
2021/11/18 14:48:20;;;;;;;15.50;6.77;;;;;;;;;;5034485;28;20104;-63
2021/11/18 14:50:59;;;;;;;12.68;6.38;;;;;;;;;;5034227;28;20045;-64
2021/11/18 14:53:29;;;;;;;15.52;7.47;;;;;;;;;;5034185;28;20128;-64
2021/11/18 14:56:05;;;;;;;13.18;6.60;;;;;;;;;;5034611;28;20118;-63
2021/11/18 14:58:33;;;;;;;13.15;6.82;;;;;;;;;;5034753;28;20064;-64
2021/11/18 15:01:02;;;;;;;14.65;7.20;;;;;;;;;;5034273;28;20056;-64
2021/11/18 15:03:45;;;;;;;13.32;7.18;;;;;;;;;;5034155;28;20045;-63
2021/11/18 15:06:15;;;;;;;13.90;6.85;;;;;;;;;;5034346;28;20067;-65
2021/11/18 15:08:43;;;;;;;16.20;6.22;;;;;;;;;;5034296;28;20479;-63
2021/11/18 15:11:11;;;;;;;13.35;6.60;;;;;;;;;;5034009;28;20513;-64
2021/11/18 15:13:38;;;;;;;16.77;8.48;;;;;;;;;;5033828;28;20057;-64
2021/11/18 15:16:06;;;;;;;51.28;26.20;;;;;;;;;;5033843;28;20128;-64
2021/11/18 15:18:35;;;;;;;34.65;20.95;;;;;;;;;;5033911;28;20055;-64
2021/11/18 15:21:02;;;;;;;37.92;29.23;;;;;;;;;;5033969;28;20560;-65
2021/11/18 15:23:29;;;;;;;53.17;43.92;;;;;;;;;;5033801;28;20088;-64
2021/11/18 15:25:57;;;;;;;49.65;37.33;;;;;;;;;;5033858;28;20081;-62
2021/11/18 15:28:24;;;;;;;48.60;26.88;;;;;;;;;;5033650;28;20053;-63
2021/11/18 15:30:54;;;;;;;35.83;17.58;;;;;;;;;;5033639;28;20208;-63
2021/11/18 15:33:22;;;;;;;16.30;8.60;;;;;;;;;;5033654;28;20103;-65
2021/11/18 15:35:52;;;;;;;15.52;8.20;;;;;;;;;;5033407;28;20080;-64
2021/11/18 15:38:22;;;;;;;15.35;6.78;;;;;;;;;;5033727;28;20475;-64
2021/11/18 15:40:51;;;;;;;16.70;8.02;;;;;;;;;;5033576;28;20046;-65
2021/11/18 15:43:20;;;;;;;16.48;7.95;;;;;;;;;;5033612;28;20134;-64
2021/11/18 15:45:48;;;;;;;16.15;7.68;;;;;;;;;;5033621;28;20137;-65
2021/11/18 15:48:15;;;;;;;20.95;9.02;;;;;;;;;;5033450;28;20128;-65
2021/11/18 15:50:46;;;;;;;18.10;9.38;;;;;;;;;;5033436;28;20461;-64
2021/11/18 15:53:18;;;;;;;19.58;10.07;;;;;;;;;;5033575;28;20152;-63
2021/11/18 15:55:49;;;;;;;17.65;8.43;;;;;;;;;;5033433;28;20093;-65
2021/11/18 15:58:17;;;;;;;19.75;9.30;;;;;;;;;;5033107;28;20042;-62
2021/11/18 16:00:48;;;;;;;22.02;9.23;;;;;;;;;;5032983;28;20056;-63
2021/11/18 16:03:15;;;;;;;17.70;10.27;;;;;;;;;;5033186;28;20125;-64
2021/11/18 16:05:44;;;;;;;19.83;10.10;;;;;;;;;;5033298;28;20587;-64
2021/11/18 16:08:12;;;;;;;19.05;9.52;;;;;;;;;;5033235;28;20049;-64
2021/11/18 16:10:47;;;;;;;22.88;10.07;;;;;;;;;;5033149;28;20046;-65
2021/11/18 16:13:14;;;;;;;23.83;9.88;;;;;;;;;;5033212;28;20081;-65
2021/11/18 16:15:42;;;;;;;23.27;10.15;;;;;;;;;;5032989;28;20076;-64
2021/11/18 16:18:12;;;;;;;22.35;9.82;;;;;;;;;;5056139;23;20045;-66
2021/11/18 16:20:45;;;;;;;25.58;11.68;;;;;;;;;;5052519;28;20088;-67
2021/11/18 16:23:12;;;;;;;25.75;11.57;;;;;;;;;;5032591;28;20053;-67
2021/11/18 16:25:42;;;;;;;25.80;12.50;;;;;;;;;;5032047;28;20136;-67